Time;durP1;ratioP1;P1;durP2;ratioP2;P2;SDS_P1;SDS_P2;PMS_P1;PMS_P2;Temp;Humidity;BMP_temperature;BMP_pressure;BME280_temperature;BME280_humidity;BME280_pressure;Samples;Min_cycle;Max_cycle;Signal;HPM_P1;HPM_P2
2022/06/03 00:00:09;;;;;;;4.77;4.20;;;18.00;99.90;;;;;;4983324;28;20496;-73
2022/06/03 00:02:43;;;;;;;5.17;3.87;;;18.10;99.90;;;;;;5004279;28;20543;-73
2022/06/03 00:05:26;;;;;;;5.13;4.23;;;18.20;99.90;;;;;;5003699;28;20446;-73
2022/06/03 00:08:33;;;;;;;5.37;4.13;;;18.30;99.90;;;;;;5004258;28;20475;-74
2022/06/03 00:11:01;;;;;;;4.10;3.67;;;18.30;99.90;;;;;;5003853;28;20483;-71
2022/06/03 00:13:45;;;;;;;3.97;3.67;;;18.20;99.90;;;;;;5004113;28;20406;-73
2022/06/03 00:16:27;;;;;;;4.63;4.20;;;18.30;99.90;;;;;;5003766;28;20481;-74
2022/06/03 00:19:21;;;;;;;4.37;4.07;;;18.20;99.90;;;;;;5003700;28;20407;-72
2022/06/03 00:22:26;;;;;;;4.00;3.70;;;18.10;99.90;;;;;;5003852;28;20410;-74
2022/06/03 00:25:21;;;;;;;4.73;4.17;;;18.10;99.90;;;;;;5008193;28;20806;-73
2022/06/03 00:28:21;;;;;;;4.93;4.50;;;18.10;99.90;;;;;;5008101;28;20840;-74
2022/06/03 00:31:18;;;;;;;4.10;3.80;;;17.90;99.90;;;;;;4986105;28;20410;-73
2022/06/03 00:33:45;;;;;;;5.10;4.20;;;17.80;99.90;;;;;;5004798;28;20969;-71
2022/06/03 00:36:31;;;;;;;4.20;3.90;;;17.80;99.90;;;;;;5007465;28;20429;-73
2022/06/03 00:39:34;;;;;;;4.20;3.90;;;17.80;99.90;;;;;;5008013;28;20865;-71
2022/06/03 00:42:14;;;;;;;4.57;4.13;;;17.90;99.90;;;;;;5007628;28;20418;-71
2022/06/03 00:44:49;;;;;;;5.40;4.60;;;17.80;99.90;;;;;;5007861;28;20904;-73
2022/06/03 00:47:52;;;;;;;6.00;5.03;;;17.70;99.90;;;;;;5007818;28;20403;-72
2022/06/03 00:50:42;;;;;;;4.53;4.13;;;17.70;99.90;;;;;;5007315;28;20417;-73
2022/06/03 00:53:27;;;;;;;4.50;4.10;;;17.60;99.90;;;;;;5007619;28;20441;-73
2022/06/03 00:56:14;;;;;;;5.27;4.87;;;17.50;99.90;;;;;;5006950;28;20457;-72
2022/06/03 00:59:05;;;;;;;4.90;4.50;;;17.50;99.90;;;;;;5007506;28;20441;-72
2022/06/03 01:01:38;;;;;;;4.90;4.40;;;17.50;99.90;;;;;;5008303;28;20513;-72
2022/06/03 01:04:25;;;;;;;5.17;4.70;;;17.50;99.90;;;;;;5006966;28;20868;-73
2022/06/03 01:07:10;;;;;;;4.90;4.40;;;17.50;99.90;;;;;;5007196;28;20411;-72
2022/06/03 01:10:02;;;;;;;5.87;4.60;;;17.40;99.90;;;;;;5006373;28;20416;-72
2022/06/03 01:12:52;;;;;;;4.80;4.23;;;17.40;99.90;;;;;;5006935;28;20418;-72
2022/06/03 01:15:37;;;;;;;4.87;4.43;;;17.30;99.90;;;;;;5007019;28;20434;-73
2022/06/03 01:18:26;;;;;;;4.90;4.43;;;17.30;99.90;;;;;;5006158;28;20520;-73
2022/06/03 01:21:05;;;;;;;4.30;3.93;;;17.40;99.90;;;;;;4987407;28;20430;-73
2022/06/03 01:24:18;;;;;;;4.23;3.93;;;17.40;99.90;;;;;;5007127;28;20454;-74
2022/06/03 01:26:58;;;;;;;4.57;4.27;;;17.50;99.90;;;;;;5007304;28;20410;-72
2022/06/03 01:30:01;;;;;;;4.70;4.40;;;17.40;99.90;;;;;;5007220;28;20909;-72
2022/06/03 01:32:35;;;;;;;4.60;4.30;;;17.20;99.90;;;;;;5006553;28;20468;-72
2022/06/03 01:35:22;;;;;;;5.00;4.60;;;17.10;99.90;;;;;;5005621;28;20445;-72
2022/06/03 01:37:59;;;;;;;4.47;4.07;;;17.10;99.90;;;;;;5006759;28;20438;-73
2022/06/03 01:40:53;;;;;;;4.00;3.70;;;17.00;99.90;;;;;;5006570;28;20422;-73
2022/06/03 01:43:37;;;;;;;5.00;4.23;;;17.00;99.90;;;;;;4991659;28;20473;-72
2022/06/03 01:46:31;;;;;;;4.27;3.97;;;17.00;99.90;;;;;;5006702;28;20439;-72
2022/06/03 01:48:56;;;;;;;4.80;3.93;;;17.20;99.90;;;;;;5006411;28;20469;-73
2022/06/03 01:51:46;;;;;;;4.50;4.07;;;17.20;99.90;;;;;;5006345;28;20423;-72
2022/06/03 01:54:50;;;;;;;3.70;3.40;;;17.10;99.90;;;;;;5005272;28;20214;-72
2022/06/03 01:57:33;;;;;;;4.47;4.07;;;17.20;99.90;;;;;;5006517;28;20428;-73
2022/06/03 02:00:07;;;;;;;4.90;4.50;;;17.10;99.90;;;;;;5006249;28;20419;-73
2022/06/03 02:02:41;;;;;;;4.40;4.10;;;17.10;99.90;;;;;;5006280;28;20453;-71
2022/06/03 02:05:24;;;;;;;4.53;4.13;;;17.00;99.90;;;;;;5006108;28;20786;-72
2022/06/03 02:08:26;;;;;;;4.70;4.30;;;16.90;99.90;;;;;;5006243;28;20417;-72
2022/06/03 02:11:23;;;;;;;4.80;4.33;;;16.90;99.90;;;;;;5005963;28;20428;-72
2022/06/03 02:14:15;;;;;;;4.70;4.30;;;17.00;99.90;;;;;;5005942;28;20535;-73
2022/06/03 02:17:08;;;;;;;5.17;4.67;;;17.10;99.90;;;;;;5005862;28;20418;-71
2022/06/03 02:20:00;;;;;;;6.80;4.40;;;17.00;99.90;;;;;;5005810;28;20509;-72
2022/06/03 02:23:06;;;;;;;4.87;4.10;;;17.00;99.90;;;;;;5005594;28;20480;-73
2022/06/03 02:25:50;;;;;;;4.57;4.17;;;17.00;99.90;;;;;;4984761;28;20442;-73
2022/06/03 02:28:29;;;;;;;4.33;4.03;;;16.90;99.90;;;;;;5005580;28;20778;-72
2022/06/03 02:31:10;;;;;;;4.90;4.40;;;17.00;99.90;;;;;;5004369;28;20451;-72
2022/06/03 02:34:07;;;;;;;5.33;4.93;;;17.00;99.90;;;;;;5005566;28;20421;-73
2022/06/03 02:36:33;;;;;;;5.10;4.70;;;17.00;99.90;;;;;;5005127;28;20485;-72
2022/06/03 02:39:20;;;;;;;5.03;4.63;;;17.00;99.90;;;;;;5005574;28;20425;-73
2022/06/03 02:42:09;;;;;;;4.80;4.40;;;16.90;99.90;;;;;;5005241;28;20707;-72
2022/06/03 02:44:53;;;;;;;4.90;4.40;;;16.90;99.90;;;;;;5005490;28;20441;-72
2022/06/03 02:47:43;;;;;;;4.67;3.93;;;16.90;99.90;;;;;;5005219;28;20405;-73
2022/06/03 02:50:25;;;;;;;4.33;3.93;;;17.00;99.90;;;;;;5005137;28;20414;-72
2022/06/03 02:53:28;;;;;;;5.03;4.43;;;17.00;99.90;;;;;;5005387;28;20930;-73
2022/06/03 02:56:06;;;;;;;5.60;5.20;;;17.00;99.90;;;;;;5003321;28;21077;-72
2022/06/03 02:58:52;;;;;;;4.97;4.47;;;16.90;99.90;;;;;;5005236;28;20432;-72
2022/06/03 03:01:34;;;;;;;5.40;4.90;;;16.80;99.90;;;;;;5005162;28;20397;-72
2022/06/03 03:04:27;;;;;;;5.43;5.00;;;16.80;99.90;;;;;;5004706;28;20465;-73
2022/06/03 03:07:19;;;;;;;5.10;4.70;;;16.90;99.90;;;;;;5005084;28;20462;-73
2022/06/03 03:10:06;;;;;;;4.97;4.67;;;16.90;99.90;;;;;;5004777;28;20410;-72
2022/06/03 03:13:05;;;;;;;4.90;4.50;;;17.00;99.90;;;;;;5005060;28;20443;-72
2022/06/03 03:15:57;;;;;;;5.00;4.60;;;17.10;99.90;;;;;;5005004;28;20826;-74
2022/06/03 03:18:55;;;;;;;4.70;4.40;;;17.10;99.90;;;;;;5004852;28;20422;-72
2022/06/03 03:21:45;;;;;;;5.43;5.07;;;17.10;99.90;;;;;;5002340;28;20632;-73
2022/06/03 03:24:54;;;;;;;5.63;5.13;;;17.00;99.90;;;;;;5004586;28;20476;-73
2022/06/03 03:27:34;;;;;;;5.27;4.77;;;17.00;99.90;;;;;;5004473;28;20762;-71
2022/06/03 03:30:09;;;;;;;4.60;4.20;;;17.10;99.90;;;;;;5004777;28;20413;-72
2022/06/03 03:32:49;;;;;;;5.47;4.97;;;17.20;99.90;;;;;;5004824;28;20433;-72
2022/06/03 03:35:20;;;;;;;5.00;4.50;;;17.10;99.90;;;;;;5004123;28;20446;-71
2022/06/03 03:38:01;;;;;;;4.80;4.47;;;17.10;99.90;;;;;;5004803;28;21374;-71
2022/06/03 03:40:32;;;;;;;5.10;4.70;;;17.10;99.90;;;;;;5004152;28;20418;-73
2022/06/03 03:43:32;;;;;;;5.37;4.83;;;17.20;99.90;;;;;;5003196;28;21120;-73
2022/06/03 03:46:22;;;;;;;4.67;4.27;;;17.10;99.90;;;;;;5004505;28;20427;-72
2022/06/03 03:48:54;;;;;;;5.27;4.87;;;17.10;99.90;;;;;;5004312;28;20402;-72
2022/06/03 03:51:22;;;;;;;5.00;4.50;;;17.10;99.90;;;;;;5004510;28;21544;-73
2022/06/03 03:54:07;;;;;;;5.27;4.77;;;17.20;99.90;;;;;;5004794;28;20504;-72
2022/06/03 03:56:44;;;;;;;5.13;4.73;;;17.10;99.90;;;;;;5003919;28;20426;-71
2022/06/03 03:59:22;;;;;;;8.97;4.93;;;17.00;99.90;;;;;;5004073;28;20957;-72
2022/06/03 04:02:24;;;;;;;5.17;4.67;;;17.00;99.90;;;;;;5004650;28;20902;-72
2022/06/03 04:05:17;;;;;;;5.00;4.70;;;16.90;99.90;;;;;;5003964;28;20437;-71
2022/06/03 04:08:20;;;;;;;5.60;5.17;;;16.90;99.90;;;;;;5004404;28;20547;-72
2022/06/03 04:10:51;;;;;;;5.30;4.90;;;16.90;99.90;;;;;;5002940;28;20433;-73
2022/06/03 04:13:56;;;;;;;4.90;4.50;;;17.00;99.90;;;;;;5004431;28;20402;-72
2022/06/03 04:16:59;;;;;;;4.97;4.57;;;16.90;99.90;;;;;;5004367;28;20496;-72
2022/06/03 04:20:04;;;;;;;5.13;4.73;;;17.00;99.90;;;;;;5004399;28;20767;-72
2022/06/03 04:22:43;;;;;;;6.03;5.53;;;17.00;99.90;;;;;;5004087;28;20413;-72
2022/06/03 04:25:39;;;;;;;5.47;5.07;;;16.90;99.90;;;;;;5003727;28;20473;-72
2022/06/03 04:28:26;;;;;;;5.47;5.07;;;17.00;99.90;;;;;;5004102;28;20773;-72
2022/06/03 04:31:03;;;;;;;6.03;5.50;;;17.00;99.90;;;;;;5003702;28;20414;-72
2022/06/03 04:33:52;;;;;;;6.63;5.93;;;17.00;99.90;;;;;;5004061;28;20910;-73
2022/06/03 04:36:37;;;;;;;6.23;5.63;;;17.00;99.90;;;;;;5003550;28;20426;-72
2022/06/03 04:39:21;;;;;;;5.83;5.40;;;16.90;99.90;;;;;;5003758;28;20503;-73
2022/06/03 04:42:04;;;;;;;5.80;5.30;;;16.90;99.90;;;;;;5003651;28;20418;-73
2022/06/03 04:44:52;;;;;;;5.77;5.27;;;16.90;99.90;;;;;;5003637;28;21050;-71
2022/06/03 04:48:01;;;;;;;6.37;5.87;;;17.00;99.90;;;;;;5003622;28;20946;-73
2022/06/03 04:50:56;;;;;;;7.07;6.47;;;17.10;99.90;;;;;;5003407;28;20421;-71
2022/06/03 04:53:22;;;;;;;6.97;6.13;;;17.10;99.90;;;;;;5003557;28;20437;-73
2022/06/03 04:56:03;;;;;;;6.97;6.37;;;17.10;99.90;;;;;;5003258;28;20493;-72
2022/06/03 04:58:54;;;;;;;6.20;5.70;;;17.20;99.90;;;;;;5003795;28;20176;-72
2022/06/03 05:01:40;;;;;;;6.83;6.23;;;17.30;99.90;;;;;;5003650;28;20422;-74
2022/06/03 05:04:43;;;;;;;8.30;5.97;;;17.40;99.90;;;;;;5003633;28;20457;-71
2022/06/03 05:07:39;;;;;;;6.70;5.77;;;17.50;99.90;;;;;;5003617;28;20457;-72
2022/06/03 05:10:52;;;;;;;6.43;5.87;;;17.60;99.90;;;;;;5007011;28;20415;-72
2022/06/03 05:13:36;;;;;;;5.93;5.43;;;17.70;99.90;;;;;;5007383;28;20407;-72
2022/06/03 05:16:27;;;;;;;5.27;4.87;;;17.90;99.90;;;;;;5007109;28;20465;-72
2022/06/03 05:18:53;;;;;;;5.73;4.90;;;18.10;99.90;;;;;;5006940;28;20469;-72
2022/06/03 05:21:32;;;;;;;5.53;5.07;;;18.20;99.90;;;;;;5006778;28;20425;-73
2022/06/03 05:24:17;;;;;;;6.77;6.17;;;18.40;99.90;;;;;;5007044;28;20458;-72
2022/06/03 05:27:08;;;;;;;5.93;5.40;;;18.50;99.90;;;;;;5006576;28;20410;-72
2022/06/03 05:30:11;;;;;;;6.20;5.70;;;18.40;99.90;;;;;;5006993;28;20450;-72
2022/06/03 05:32:48;;;;;;;5.53;5.03;;;18.60;99.90;;;;;;5006777;28;20469;-72
2022/06/03 05:35:20;;;;;;;5.67;4.77;;;18.80;99.90;;;;;;5005169;28;21067;-73
2022/06/03 05:37:58;;;;;;;5.23;4.83;;;19.00;99.90;;;;;;5006557;28;20478;-74
2022/06/03 05:41:02;;;;;;;5.80;5.40;;;19.10;99.90;;;;;;5006542;28;20533;-73
2022/06/03 05:43:46;;;;;;;5.97;5.37;;;19.30;99.90;;;;;;5006719;28;20815;-72
2022/06/03 05:46:24;;;;;;;6.53;6.00;;;19.50;99.90;;;;;;5006264;28;20833;-73
2022/06/03 05:49:04;;;;;;;5.80;5.20;;;19.60;99.90;;;;;;5006278;28;20411;-74
2022/06/03 05:51:52;;;;;;;6.30;5.47;;;19.70;99.90;;;;;;5006157;28;20981;-71
2022/06/03 05:54:42;;;;;;;6.40;5.90;;;19.90;99.90;;;;;;5006265;28;20939;-73
2022/06/03 05:57:49;;;;;;;6.30;5.80;;;20.10;99.90;;;;;;5006026;28;20418;-72
2022/06/03 06:00:50;;;;;;;6.70;6.00;;;20.20;99.90;;;;;;5006019;28;20803;-72
2022/06/03 06:03:24;;;;;;;6.73;6.10;;;20.30;99.90;;;;;;4997189;28;20526;-71
2022/06/03 06:06:01;;;;;;;6.83;6.00;;;20.20;99.90;;;;;;5005877;28;20435;-72
2022/06/03 06:08:40;;;;;;;8.47;7.67;;;20.20;99.90;;;;;;5006308;28;20418;-73
2022/06/03 06:11:16;;;;;;;9.17;8.27;;;20.20;99.90;;;;;;5005478;28;20824;-73
2022/06/03 06:13:51;;;;;;;9.53;8.73;;;19.80;99.90;;;;;;5005800;28;20422;-73
2022/06/03 06:16:22;;;;;;;9.10;8.30;;;19.70;99.90;;;;;;5006617;28;20410;-73
2022/06/03 06:19:06;;;;;;;10.30;8.10;;;19.80;99.90;;;;;;5006223;28;20945;-73
2022/06/03 06:21:51;;;;;;;8.37;7.60;;;20.10;99.90;;;;;;5005335;28;20537;-70
2022/06/03 06:24:42;;;;;;;9.77;7.03;;;20.40;99.90;;;;;;5005847;28;20887;-74
2022/06/03 06:27:49;;;;;;;6.47;5.90;;;20.70;99.90;;;;;;5005608;28;20433;-74
2022/06/03 06:30:37;;;;;;;8.90;8.10;;;21.00;99.90;;;;;;4985722;28;20473;-73
2022/06/03 06:33:34;;;;;;;12.77;7.33;;;21.10;99.90;;;;;;5005908;28;20421;-73
2022/06/03 06:36:51;;;;;;;8.80;8.07;;;21.30;99.90;;;;;;4991404;28;20454;-73
2022/06/03 06:39:47;;;;;;;8.20;7.40;;;20.80;99.90;;;;;;4993155;28;20455;-73
2022/06/03 06:42:44;;;;;;;7.40;6.70;;;21.00;99.90;;;;;;5005079;28;20425;-73
2022/06/03 06:45:41;;;;;;;8.20;7.40;;;21.40;99.90;;;;;;5005306;28;20451;-73
2022/06/03 06:48:41;;;;;;;7.33;6.77;;;21.40;99.90;;;;;;5005233;28;20417;-73
2022/06/03 06:51:22;;;;;;;7.23;6.63;;;21.00;99.90;;;;;;5004978;28;20403;-72
2022/06/03 06:53:57;;;;;;;7.67;6.90;;;20.70;99.90;;;;;;5005301;28;20507;-73
2022/06/03 06:56:40;;;;;;;8.93;6.43;;;20.80;99.90;;;;;;5004560;28;20453;-74
2022/06/03 06:59:09;;;;;;;7.90;7.10;;;21.00;99.90;;;;;;5005617;28;20462;-73
2022/06/03 07:01:43;;;;;;;9.77;7.07;;;21.00;99.90;;;;;;5005051;28;20426;-73
2022/06/03 07:04:17;;;;;;;9.50;8.30;;;20.90;99.90;;;;;;5004285;28;20461;-74
2022/06/03 07:07:04;;;;;;;7.87;7.17;;;20.80;99.90;;;;;;5004301;28;20830;-73
2022/06/03 07:09:42;;;;;;;8.67;7.17;;;21.10;99.90;;;;;;5004708;28;20418;-75
2022/06/03 07:12:18;;;;;;;8.10;7.30;;;21.10;99.90;;;;;;5003813;28;20474;-74
2022/06/03 07:15:11;;;;;;;8.40;6.77;;;21.20;99.90;;;;;;5004836;28;20497;-74
2022/06/03 07:21:07;;;;;;;6.13;5.53;;;21.50;99.90;;;;;;5004669;28;20469;-75
2022/06/03 07:23:49;;;;;;;5.23;4.73;;;21.90;99.90;;;;;;5004287;28;20485;-75
2022/06/03 07:26:50;;;;;;;6.83;5.20;;;22.00;99.90;;;;;;5004510;28;20407;-72
2022/06/03 07:29:39;;;;;;;5.50;5.10;;;22.30;99.90;;;;;;5033988;22;20502;-71
2022/06/03 07:32:29;;;;;;;4.83;4.33;;;22.60;99.90;;;;;;5017627;28;20430;-72
2022/06/03 07:35:01;;;;;;;7.50;5.43;;;22.60;99.90;;;;;;5020049;28;20437;-69
2022/06/03 07:37:27;;;;;;;5.17;4.50;;;22.80;99.90;;;;;;5018601;28;20471;-71
2022/06/03 07:39:53;;;;;;;4.93;4.40;;;23.20;99.90;;;;;;5004660;28;20837;-72
2022/06/03 07:42:38;;;;;;;4.73;4.43;;;23.70;99.90;;;;;;5003309;28;20592;-72
2022/06/03 07:45:26;;;;;;;5.13;4.63;;;23.80;99.90;;;;;;5004578;28;20207;-69
2022/06/03 07:47:54;;;;;;;5.50;5.00;;;23.50;99.90;;;;;;5003078;28;20407;-71
2022/06/03 07:50:21;;;;;;;5.60;5.10;;;23.50;99.90;;;;;;5004334;28;20455;-72
2022/06/03 07:53:12;;;;;;;6.10;4.97;;;23.10;99.90;;;;;;5004140;28;20923;-71
2022/06/03 07:55:39;;;;;;;5.70;5.17;;;23.10;99.90;;;;;;4967244;28;20470;-73
2022/06/03 07:58:08;;;;;;;6.87;5.50;;;23.60;99.90;;;;;;5002927;28;20431;-71
2022/06/03 08:00:36;;;;;;;5.30;4.80;;;23.70;99.90;;;;;;5004439;28;20469;-72
2022/06/03 08:03:16;;;;;;;5.33;4.93;;;23.40;99.90;;;;;;5004508;28;20497;-72
2022/06/03 08:05:55;;;;;;;4.73;4.30;;;23.60;99.90;;;;;;5004258;28;20977;-74
2022/06/03 08:11:32;;;;;;;5.37;4.97;;;23.10;99.90;;;;;;5003504;28;20472;-71
2022/06/03 08:14:00;;;;;;;4.33;3.97;;;23.20;99.90;;;;;;5004295;28;20437;-74
2022/06/03 08:16:29;;;;;;;4.60;4.30;;;23.40;99.90;;;;;;5004081;28;20901;-71
2022/06/03 08:18:58;;;;;;;4.37;3.90;;;23.70;99.90;;;;;;5003613;28;21133;-71
2022/06/03 08:21:28;;;;;;;5.50;4.70;;;23.80;99.90;;;;;;5003867;28;20425;-71
2022/06/03 08:23:55;;;;;;;6.60;5.37;;;24.10;99.90;;;;;;5003368;28;21030;-73
2022/06/03 08:26:26;;;;;;;8.23;5.60;;;24.20;99.90;;;;;;5003191;28;20769;-72
2022/06/03 08:29:06;;;;;;;6.43;5.60;;;23.90;99.90;;;;;;5003735;28;20880;-71
2022/06/03 08:31:32;;;;;;;5.37;4.83;;;24.10;99.90;;;;;;5004005;28;20862;-73
2022/06/03 08:34:01;;;;;;;5.40;4.90;;;24.40;99.90;;;;;;5003981;28;20414;-71
2022/06/03 08:36:34;;;;;;;6.67;4.53;;;24.60;99.90;;;;;;5004143;28;20429;-71
2022/06/03 08:39:12;;;;;;;4.40;4.00;;;24.70;99.90;;;;;;5004027;28;20437;-72
2022/06/03 08:41:52;;;;;;;5.00;4.50;;;24.70;99.90;;;;;;5003989;28;20407;-72
2022/06/03 08:44:45;;;;;;;4.67;4.20;;;24.90;99.90;;;;;;5006450;28;21552;-73
2022/06/03 08:47:20;;;;;;;6.00;4.70;;;25.10;99.90;;;;;;5007768;28;20403;-73
2022/06/03 08:50:10;;;;;;;5.27;4.60;;;25.00;99.90;;;;;;5007754;28;20803;-73
2022/06/03 08:52:54;;;;;;;5.73;4.80;;;24.60;99.90;;;;;;5007387;28;20409;-71
2022/06/03 08:55:41;;;;;;;4.90;4.40;;;24.70;99.90;;;;;;5007004;28;20402;-73
2022/06/03 08:58:36;;;;;;;4.27;3.97;;;24.80;99.90;;;;;;5006498;28;20518;-69
2022/06/03 09:01:24;;;;;;;5.00;4.60;;;25.10;99.90;;;;;;5007668;28;20414;-72
2022/06/03 09:04:12;;;;;;;4.93;4.53;;;25.40;99.90;;;;;;5007744;28;20565;-71
2022/06/03 09:06:45;;;;;;;4.37;4.07;;;25.50;99.90;;;;;;5007408;28;20415;-71
2022/06/03 09:09:33;;;;;;;4.10;3.80;;;25.30;99.90;;;;;;5007414;28;20457;-72
2022/06/03 09:12:28;;;;;;;4.60;4.27;;;25.40;99.90;;;;;;5007021;28;20427;-72
2022/06/03 09:14:55;;;;;;;4.83;4.33;;;25.50;99.90;;;;;;5001570;28;20430;-72
2022/06/03 09:17:28;;;;;;;6.00;4.60;;;25.60;99.90;;;;;;5007493;28;20430;-72
2022/06/03 09:19:57;;;;;;;4.83;4.20;;;25.50;99.90;;;;;;5007562;28;20463;-72
2022/06/03 09:22:27;;;;;;;5.63;4.67;;;25.60;99.90;;;;;;5007459;28;20410;-72
2022/06/03 09:24:56;;;;;;;4.77;4.47;;;25.60;99.90;;;;;;5007661;28;20422;-72
2022/06/03 09:27:22;;;;;;;4.90;4.50;;;25.50;99.90;;;;;;5006844;28;20939;-72
2022/06/03 09:29:51;;;;;;;4.30;3.47;;;25.50;99.90;;;;;;5006915;28;20838;-72
2022/06/03 09:32:19;;;;;;;5.13;4.13;;;25.80;99.90;;;;;;5007526;28;20774;-71
2022/06/03 09:34:52;;;;;;;4.40;4.07;;;25.70;99.90;;;;;;5005558;28;20931;-73
2022/06/03 09:37:23;;;;;;;14.20;12.80;;;25.80;99.90;;;;;;5006677;28;20403;-72
2022/06/03 09:39:51;;;;;;;5.63;4.93;;;26.30;99.90;;;;;;5006534;28;20549;-73
2022/06/03 09:42:19;;;;;;;5.23;4.73;;;26.50;99.80;;;;;;5006962;28;20498;-72
2022/06/03 09:44:47;;;;;;;5.90;4.67;;;26.80;99.80;;;;;;5006830;28;20919;-74
2022/06/03 09:47:18;;;;;;;5.97;4.97;;;26.80;99.50;;;;;;5006657;28;20822;-71
2022/06/03 09:49:46;;;;;;;5.20;4.70;;;26.70;99.90;;;;;;5006406;28;20423;-71
2022/06/03 09:52:14;;;;;;;4.80;4.40;;;26.90;99.80;;;;;;5007206;28;20822;-72
2022/06/03 09:54:43;;;;;;;4.90;4.40;;;27.00;99.80;;;;;;5006260;28;20419;-71
2022/06/03 09:57:32;;;;;;;4.53;4.13;;;27.00;99.00;;;;;;5006130;28;20419;-71
2022/06/03 10:00:08;;;;;;;5.23;4.70;;;27.00;99.60;;;;;;5006588;28;20914;-71
2022/06/03 10:02:35;;;;;;;5.50;5.00;;;27.20;99.30;;;;;;5006828;28;20418;-70
2022/06/03 10:05:03;;;;;;;5.43;4.90;;;27.40;98.40;;;;;;5006748;28;20426;-72
2022/06/03 10:07:30;;;;;;;5.93;4.60;;;27.20;98.10;;;;;;5006666;28;20433;-71
2022/06/03 10:12:52;;;;;;;5.30;4.80;;;27.40;98.10;;;;;;5006331;28;20394;-72
2022/06/03 10:15:43;;;;;;;4.83;4.37;;;27.40;97.80;;;;;;5006575;28;21396;-71
2022/06/03 10:18:28;;;;;;;4.23;3.80;;;27.60;97.80;;;;;;5006352;28;20415;-72
2022/06/03 10:20:59;;;;;;;4.37;3.97;;;28.20;97.30;;;;;;5005767;28;20423;-72
2022/06/03 10:23:32;;;;;;;3.80;3.50;;;28.80;95.90;;;;;;5006082;28;20454;-71
2022/06/03 10:26:01;;;;;;;3.37;3.07;;;29.10;95.20;;;;;;5006166;28;20453;-70
2022/06/03 10:28:32;;;;;;;3.90;3.30;;;29.40;94.30;;;;;;5005903;28;20438;-72
2022/06/03 10:31:00;;;;;;;4.23;3.80;;;29.40;94.00;;;;;;5006141;28;20447;-72
2022/06/03 10:33:26;;;;;;;4.10;3.77;;;29.30;94.50;;;;;;5008526;28;20411;-72
2022/06/03 10:35:57;;;;;;;4.60;4.20;;;29.50;94.10;;;;;;5010525;28;20411;-73
2022/06/03 10:38:27;;;;;;;3.70;3.40;;;29.50;94.00;;;;;;5006303;28;20793;-74
2022/06/03 10:40:53;;;;;;;4.30;2.97;;;29.60;93.40;;;;;;5006029;28;21553;-75
2022/06/03 10:43:23;;;;;;;3.47;3.00;;;29.80;92.50;;;;;;5005727;28;20602;-72
2022/06/03 10:45:48;;;;;;;4.67;3.60;;;30.30;92.10;;;;;;5005967;28;20399;-72
2022/06/03 10:48:29;;;;;;;3.00;2.80;;;30.50;91.20;;;;;;5005744;28;20518;-72
2022/06/03 10:51:14;;;;;;;3.90;3.60;;;30.80;91.70;;;;;;5005492;28;20208;-73
2022/06/03 11:02:02;;;;;;;4.70;4.30;;;30.40;91.00;;;;;;5006290;28;20406;-69
2022/06/03 11:04:30;;;;;;;4.20;3.80;;;29.90;91.30;;;;;;5005844;28;20542;-70
2022/06/03 11:06:59;;;;;;;3.87;3.57;;;30.30;90.50;;;;;;5005803;28;20445;-70
2022/06/03 11:09:25;;;;;;;5.77;4.27;;;30.40;90.90;;;;;;5005363;28;20435;-70
2022/06/03 11:11:58;;;;;;;3.87;3.57;;;30.80;89.90;;;;;;5005401;28;20429;-70
2022/06/03 11:14:39;;;;;;;3.80;3.40;;;31.10;89.80;;;;;;5005405;28;20540;-71
2022/06/03 11:17:21;;;;;;;4.90;3.83;;;30.60;88.80;;;;;;5005715;28;20422;-70
2022/06/03 11:19:55;;;;;;;4.57;4.13;;;29.60;90.50;;;;;;5005400;28;20489;-69
2022/06/03 11:22:30;;;;;;;4.20;3.80;;;29.00;91.40;;;;;;5005320;28;20415;-70
2022/06/03 11:24:58;;;;;;;5.73;3.60;;;28.60;92.10;;;;;;5005260;28;20979;-70
2022/06/03 11:27:29;;;;;;;4.97;4.67;;;28.40;91.80;;;;;;5005152;28;20438;-70
2022/06/03 11:30:01;;;;;;;4.10;3.77;;;28.40;92.10;;;;;;5004381;28;20443;-71
2022/06/03 11:32:29;;;;;;;5.70;4.60;;;28.60;91.50;;;;;;5004960;28;20415;-71
2022/06/03 11:35:03;;;;;;;5.30;4.90;;;28.60;92.30;;;;;;5003655;28;20431;-70
2022/06/03 11:37:38;;;;;;;4.60;4.20;;;28.60;92.10;;;;;;5004555;28;20854;-70
2022/06/03 11:40:07;;;;;;;5.00;4.60;;;28.80;91.80;;;;;;5004598;28;20438;-70
2022/06/03 11:42:52;;;;;;;4.20;3.90;;;28.90;92.70;;;;;;5004236;28;20447;-71
2022/06/03 11:45:21;;;;;;;4.50;4.07;;;28.50;92.00;;;;;;5004717;28;20457;-72
2022/06/03 11:48:08;;;;;;;5.53;3.90;;;28.10;92.20;;;;;;5004419;28;21202;-71
2022/06/03 11:50:35;;;;;;;4.20;3.30;;;28.10;93.20;;;;;;5004347;28;20438;-71
2022/06/03 11:53:01;;;;;;;5.40;3.83;;;28.30;94.10;;;;;;5005087;28;21145;-70
2022/06/03 11:55:31;;;;;;;5.90;4.10;;;28.20;93.30;;;;;;5005067;28;20418;-70
2022/06/03 11:58:21;;;;;;;4.00;3.60;;;27.90;94.50;;;;;;5004672;28;20419;-72
2022/06/03 12:00:51;;;;;;;3.93;3.63;;;27.60;95.20;;;;;;5020132;28;20801;-71
2022/06/03 12:03:37;;;;;;;3.97;3.67;;;27.50;95.60;;;;;;5005362;28;20446;-71
2022/06/03 12:06:22;;;;;;;4.60;3.70;;;27.50;95.50;;;;;;5005331;28;20857;-73
2022/06/03 12:08:53;;;;;;;5.37;4.03;;;27.70;95.40;;;;;;5006623;28;20883;-71
2022/06/03 12:14:37;;;;;;;5.07;4.20;;;27.40;96.00;;;;;;4980683;28;20465;-71
2022/06/03 12:17:11;;;;;;;5.63;3.70;;;28.00;95.60;;;;;;5013226;28;20407;-71
2022/06/03 12:19:43;;;;;;;3.70;3.50;;;27.90;95.40;;;;;;5010012;28;20864;-70
2022/06/03 12:22:17;;;;;;;6.60;4.20;;;27.80;95.60;;;;;;5010674;28;20433;-73
2022/06/03 12:24:46;;;;;;;4.20;3.53;;;27.80;96.00;;;;;;5010446;28;20448;-72
2022/06/03 12:27:34;;;;;;;7.43;4.03;;;28.00;95.80;;;;;;5010323;28;20410;-70
2022/06/03 12:30:11;;;;;;;5.73;3.93;;;27.70;96.10;;;;;;5010621;28;20738;-69
2022/06/03 12:32:39;;;;;;;4.90;4.37;;;28.10;96.00;;;;;;5010716;28;20418;-70
2022/06/03 12:35:41;;;;;;;3.80;3.50;;;28.40;95.60;;;;;;5009323;28;20996;-70
2022/06/03 12:38:19;;;;;;;4.30;3.43;;;29.00;95.00;;;;;;5008615;28;21063;-70
2022/06/03 12:40:49;;;;;;;5.43;4.20;;;29.00;95.10;;;;;;5005434;28;20445;-70
2022/06/03 12:43:30;;;;;;;4.23;3.90;;;29.00;94.50;;;;;;5004696;28;21017;-70
2022/06/03 12:46:04;;;;;;;6.50;4.37;;;29.00;94.10;;;;;;5004585;28;20414;-70
2022/06/03 12:48:47;;;;;;;5.43;4.23;;;29.00;94.30;;;;;;5005024;28;20398;-71
2022/06/03 12:51:28;;;;;;;4.83;4.20;;;28.60;95.10;;;;;;5004903;28;20517;-71
2022/06/03 12:53:58;;;;;;;4.83;4.17;;;28.40;96.10;;;;;;5004452;28;20421;-70
2022/06/03 12:56:37;;;;;;;3.90;3.60;;;28.40;95.30;;;;;;5003760;28;20955;-70
2022/06/03 12:59:15;;;;;;;4.53;4.13;;;28.60;95.30;;;;;;5003785;28;20426;-70
2022/06/03 13:02:03;;;;;;;5.47;3.97;;;28.60;95.50;;;;;;5004544;28;20498;-73
2022/06/03 13:04:54;;;;;;;4.37;3.97;;;28.50;95.70;;;;;;5003152;28;20545;-71
2022/06/03 13:07:25;;;;;;;4.43;4.03;;;28.20;96.10;;;;;;5003878;28;20468;-70
2022/06/03 13:10:03;;;;;;;3.77;3.47;;;28.40;96.40;;;;;;5004225;28;20462;-70
2022/06/03 13:12:32;;;;;;;4.67;4.17;;;28.50;96.00;;;;;;5003612;28;20509;-71
2022/06/03 13:15:16;;;;;;;5.23;3.70;;;28.50;96.40;;;;;;5003804;28;20410;-72
2022/06/03 13:20:46;;;;;;;6.07;4.33;;;28.80;97.20;;;;;;5003514;28;20430;-71
2022/06/03 13:23:57;;;;;;;4.27;3.87;;;28.80;96.70;;;;;;5004455;28;20541;-72
2022/06/03 13:26:23;;;;;;;4.50;4.10;;;28.70;96.40;;;;;;5001045;28;20422;-69
2022/06/03 13:28:56;;;;;;;4.70;4.30;;;28.30;96.20;;;;;;5004281;28;20836;-70
2022/06/03 13:31:40;;;;;;;6.70;4.90;;;28.50;97.60;;;;;;5028543;22;20232;-73
2022/06/03 13:34:08;;;;;;;6.20;5.23;;;28.10;98.50;;;;;;5006480;28;20437;-74
2022/06/03 13:36:44;;;;;;;11.03;5.23;;;27.50;98.90;;;;;;5006859;28;20514;-73
2022/06/03 13:39:32;;;;;;;4.97;4.57;;;27.00;99.90;;;;;;5007240;28;20405;-73
2022/06/03 13:45:09;;;;;;;6.50;5.23;;;26.80;99.90;;;;;;4993733;28;20458;-74
2022/06/03 13:47:36;;;;;;;6.23;5.63;;;26.70;99.90;;;;;;4993805;28;20557;-73
2022/06/03 13:50:14;;;;;;;5.57;4.83;;;26.80;99.90;;;;;;4997594;28;20466;-74
2022/06/03 13:52:54;;;;;;;7.40;5.23;;;26.90;99.90;;;;;;4999804;28;21232;-71
2022/06/03 13:55:37;;;;;;;5.67;4.83;;;27.20;99.90;;;;;;4990769;28;20408;-74
2022/06/03 13:58:18;;;;;;;7.17;6.20;;;27.50;99.90;;;;;;4986795;28;20404;-72
2022/06/03 14:00:49;;;;;;;9.10;5.80;;;27.60;99.90;;;;;;5001246;28;21157;-72
2022/06/03 14:03:26;;;;;;;5.37;4.97;;;27.50;99.90;;;;;;4994219;28;20541;-75
2022/06/03 14:05:51;;;;;;;5.37;4.90;;;27.50;99.90;;;;;;4991930;28;21031;-74
2022/06/03 14:08:27;;;;;;;6.50;5.30;;;27.30;99.90;;;;;;4994973;28;20490;-73
2022/06/03 14:11:09;;;;;;;5.43;4.97;;;27.00;99.90;;;;;;4998167;28;20191;-73
2022/06/03 14:13:53;;;;;;;7.40;5.13;;;27.00;99.90;;;;;;4999945;28;20403;-74
2022/06/03 14:16:38;;;;;;;5.77;5.20;;;27.00;99.90;;;;;;4999292;28;20466;-73
2022/06/03 14:19:10;;;;;;;5.67;5.17;;;27.00;99.90;;;;;;4993118;28;20424;-73
2022/06/03 14:21:43;;;;;;;5.97;5.47;;;26.70;99.90;;;;;;4995646;28;20451;-74
2022/06/03 14:24:41;;;;;;;5.60;5.20;;;26.50;99.90;;;;;;4994209;28;20888;-75